SWA193 KSFO-KSAN
Flight info
| Callsign | SWA193 |
|---|---|
| Flight time | N/A |
| Altitude | 39000 |
| Route | WESLA5 YYUNG LAX COMIX2 |
| Aircraft | B737/M-SDE2E3FGHIRWXY/LB1 |
Departure
| Time | N/A |
|---|---|
| Airport | San Francisco International Airport (KSFO) |
Arrival
| Time | 2026-04-20 04:44 |
|---|---|
| Airport | San Diego International Airport (KSAN) |
| Time | Latitude | Longitude | Altitude | Speed | Heading |
|---|---|---|---|---|---|
| 2026-04-20 04:16 | 34.18321 | -118.83598 | 38975 ft | 474 kts | 130° |
| 2026-04-20 04:16 | 34.14387 | -118.77214 | 38968 ft | 474 kts | 130° |
| 2026-04-20 04:17 | 34.10446 | -118.70830 | 38969 ft | 474 kts | 130° |
| 2026-04-20 04:17 | 34.06508 | -118.64462 | 39005 ft | 474 kts | 130° |
| 2026-04-20 04:18 | 34.02554 | -118.58079 | 39008 ft | 474 kts | 130° |
| 2026-04-20 04:18 | 33.98582 | -118.51680 | 38428 ft | 481 kts | 130° |
| 2026-04-20 04:19 | 33.96583 | -118.48458 | 37770 ft | 479 kts | 129° |
| 2026-04-20 04:19 | 33.94590 | -118.45252 | 37151 ft | 477 kts | 129° |
| 2026-04-20 04:19 | 33.92584 | -118.42087 | 36459 ft | 475 kts | 132° |
| 2026-04-20 04:19 | 33.90398 | -118.39092 | 35687 ft | 476 kts | 135° |
| 2026-04-20 04:20 | 33.88105 | -118.36212 | 34907 ft | 477 kts | 136° |
| 2026-04-20 04:20 | 33.85783 | -118.33342 | 34073 ft | 480 kts | 135° |
| 2026-04-20 04:20 | 33.83474 | -118.30446 | 33415 ft | 478 kts | 134° |
| 2026-04-20 04:20 | 33.81210 | -118.27548 | 32792 ft | 474 kts | 134° |
| 2026-04-20 04:21 | 33.78976 | -118.24660 | 32196 ft | 470 kts | 134° |
| 2026-04-20 04:21 | 33.76764 | -118.21789 | 31636 ft | 466 kts | 133° |
| 2026-04-20 04:21 | 33.74577 | -118.18925 | 30990 ft | 463 kts | 133° |
| 2026-04-20 04:21 | 33.72447 | -118.16120 | 30462 ft | 459 kts | 133° |
| 2026-04-20 04:22 | 33.70278 | -118.13261 | 29880 ft | 455 kts | 133° |
| 2026-04-20 04:22 | 33.68184 | -118.10505 | 29282 ft | 450 kts | 133° |
| 2026-04-20 04:22 | 33.66084 | -118.07748 | 28695 ft | 445 kts | 133° |
| 2026-04-20 04:22 | 33.64009 | -118.05028 | 28138 ft | 439 kts | 133° |
| 2026-04-20 04:23 | 33.61956 | -118.02339 | 27566 ft | 434 kts | 133° |
| 2026-04-20 04:23 | 33.59926 | -117.99683 | 27015 ft | 429 kts | 133° |
| 2026-04-20 04:23 | 33.57917 | -117.97056 | 26465 ft | 425 kts | 133° |
| 2026-04-20 04:23 | 33.55933 | -117.94464 | 25914 ft | 420 kts | 133° |
| 2026-04-20 04:24 | 33.53934 | -117.91932 | 25515 ft | 412 kts | 136° |
| 2026-04-20 04:24 | 33.51905 | -117.89562 | 25084 ft | 406 kts | 137° |
| 2026-04-20 04:24 | 33.49870 | -117.87252 | 24593 ft | 402 kts | 137° |
| 2026-04-20 04:24 | 33.47847 | -117.84947 | 24077 ft | 399 kts | 137° |
| 2026-04-20 04:25 | 33.45852 | -117.82650 | 23535 ft | 397 kts | 137° |
| 2026-04-20 04:25 | 33.43871 | -117.80357 | 22912 ft | 394 kts | 137° |
| 2026-04-20 04:25 | 33.41877 | -117.78149 | 22492 ft | 386 kts | 139° |
| 2026-04-20 04:25 | 33.39880 | -117.76025 | 21979 ft | 382 kts | 140° |
| 2026-04-20 04:26 | 33.37890 | -117.73930 | 21440 ft | 378 kts | 140° |
| 2026-04-20 04:26 | 33.35927 | -117.71858 | 20922 ft | 375 kts | 140° |
| 2026-04-20 04:26 | 33.33985 | -117.69798 | 20403 ft | 372 kts | 140° |
| 2026-04-20 04:26 | 33.32061 | -117.67752 | 19888 ft | 369 kts | 140° |
| 2026-04-20 04:27 | 33.30181 | -117.65747 | 19382 ft | 365 kts | 140° |
| 2026-04-20 04:27 | 33.28289 | -117.63730 | 18875 ft | 362 kts | 140° |
| 2026-04-20 04:27 | 33.26416 | -117.61734 | 18359 ft | 359 kts | 140° |
| 2026-04-20 04:27 | 33.24556 | -117.59756 | 17808 ft | 356 kts | 140° |
| 2026-04-20 04:28 | 33.22722 | -117.57820 | 17379 ft | 349 kts | 140° |
| 2026-04-20 04:28 | 33.20909 | -117.55914 | 16862 ft | 345 kts | 140° |
| 2026-04-20 04:28 | 33.19112 | -117.54025 | 16342 ft | 342 kts | 140° |
| 2026-04-20 04:28 | 33.17334 | -117.52156 | 15834 ft | 339 kts | 140° |
| 2026-04-20 04:29 | 33.15573 | -117.50304 | 15332 ft | 336 kts | 140° |
| 2026-04-20 04:29 | 33.13822 | -117.48469 | 14831 ft | 333 kts | 141° |
| 2026-04-20 04:29 | 33.11989 | -117.46804 | 14343 ft | 330 kts | 146° |
| 2026-04-20 04:29 | 33.10101 | -117.45272 | 13860 ft | 327 kts | 147° |
| 2026-04-20 04:30 | 33.08227 | -117.43755 | 13314 ft | 325 kts | 147° |
| 2026-04-20 04:30 | 33.06372 | -117.42231 | 12786 ft | 322 kts | 146° |
| 2026-04-20 04:30 | 33.04539 | -117.40710 | 12284 ft | 320 kts | 146° |
| 2026-04-20 04:30 | 33.02725 | -117.39192 | 11786 ft | 317 kts | 146° |
| 2026-04-20 04:31 | 33.00929 | -117.37683 | 11294 ft | 315 kts | 146° |
| 2026-04-20 04:31 | 32.99142 | -117.36182 | 10799 ft | 313 kts | 146° |
| 2026-04-20 04:31 | 32.97387 | -117.34709 | 10602 ft | 302 kts | 146° |
| 2026-04-20 04:31 | 32.95705 | -117.33298 | 10445 ft | 290 kts | 146° |
| 2026-04-20 04:32 | 32.94091 | -117.31947 | 10314 ft | 278 kts | 146° |
| 2026-04-20 04:32 | 32.92543 | -117.30651 | 10193 ft | 267 kts | 146° |
| 2026-04-20 04:32 | 32.91038 | -117.29393 | 9871 ft | 267 kts | 146° |
| 2026-04-20 04:32 | 32.89474 | -117.28094 | 9175 ft | 281 kts | 146° |
| 2026-04-20 04:33 | 32.87856 | -117.26750 | 8387 ft | 285 kts | 146° |
| 2026-04-20 04:33 | 32.86245 | -117.25411 | 7832 ft | 280 kts | 146° |
| 2026-04-20 04:33 | 32.84662 | -117.24096 | 7273 ft | 275 kts | 146° |
| 2026-04-20 04:33 | 32.83104 | -117.22802 | 6717 ft | 271 kts | 146° |
| 2026-04-20 04:34 | 32.81661 | -117.21393 | 6222 ft | 270 kts | 130° |
| 2026-04-20 04:34 | 32.80755 | -117.19474 | 6008 ft | 267 kts | 112° |
| 2026-04-20 04:34 | 32.80232 | -117.17353 | 5805 ft | 269 kts | 107° |
| 2026-04-20 04:34 | 32.79786 | -117.15188 | 5590 ft | 270 kts | 106° |
| 2026-04-20 04:35 | 32.79339 | -117.13048 | 5508 ft | 261 kts | 107° |
| 2026-04-20 04:35 | 32.78904 | -117.11034 | 5478 ft | 251 kts | 107° |
| 2026-04-20 04:35 | 32.78459 | -117.09015 | 5449 ft | 248 kts | 107° |
| 2026-04-20 04:35 | 32.78023 | -117.07060 | 5431 ft | 249 kts | 108° |
| 2026-04-20 04:36 | 32.76718 | -117.03264 | 5386 ft | 249 kts | 118° |
| 2026-04-20 04:36 | 32.75965 | -117.01407 | 5362 ft | 249 kts | 118° |
| 2026-04-20 04:36 | 32.75221 | -116.99541 | 5343 ft | 250 kts | 118° |
| 2026-04-20 04:37 | 32.74539 | -116.97622 | 5196 ft | 256 kts | 112° |
| 2026-04-20 04:37 | 32.73960 | -116.95621 | 4968 ft | 254 kts | 110° |
| 2026-04-20 04:37 | 32.73428 | -116.93647 | 4846 ft | 248 kts | 109° |
| 2026-04-20 04:37 | 32.72917 | -116.91698 | 4720 ft | 247 kts | 109° |
| 2026-04-20 04:38 | 32.72134 | -116.89955 | 4616 ft | 234 kts | 140° |
| 2026-04-20 04:38 | 32.70725 | -116.89182 | 4581 ft | 221 kts | 173° |
| 2026-04-20 04:38 | 32.69216 | -116.89266 | 4546 ft | 217 kts | 195° |
| 2026-04-20 04:38 | 32.67868 | -116.90056 | 4458 ft | 220 kts | 217° |
| 2026-04-20 04:39 | 32.66897 | -116.91458 | 4308 ft | 224 kts | 248° |
| 2026-04-20 04:39 | 32.66871 | -116.93280 | 4149 ft | 227 kts | 285° |
| 2026-04-20 04:39 | 32.67381 | -116.95072 | 4045 ft | 230 kts | 287° |
| 2026-04-20 04:39 | 32.67880 | -116.96860 | 3997 ft | 226 kts | 288° |
| 2026-04-20 04:40 | 32.68388 | -116.98596 | 3891 ft | 220 kts | 287° |
| 2026-04-20 04:40 | 32.68840 | -117.00313 | 3562 ft | 214 kts | 285° |
| 2026-04-20 04:40 | 32.69254 | -117.01989 | 3223 ft | 209 kts | 285° |
| 2026-04-20 04:40 | 32.69649 | -117.03621 | 2907 ft | 203 kts | 285° |
| 2026-04-20 04:41 | 32.70032 | -117.05209 | 2590 ft | 195 kts | 285° |
| 2026-04-20 04:41 | 32.70392 | -117.06703 | 2312 ft | 182 kts | 285° |
| 2026-04-20 04:41 | 32.70724 | -117.08081 | 2069 ft | 165 kts | 285° |
| 2026-04-20 04:41 | 32.71022 | -117.09313 | 1818 ft | 144 kts | 285° |
| 2026-04-20 04:42 | 32.71282 | -117.10395 | 1562 ft | 131 kts | 285° |
| 2026-04-20 04:42 | 32.71531 | -117.11423 | 1417 ft | 130 kts | 285° |
| 2026-04-20 04:42 | 32.71787 | -117.12463 | 1257 ft | 132 kts | 286° |
| 2026-04-20 04:42 | 32.72037 | -117.13518 | 1006 ft | 132 kts | 285° |
| 2026-04-20 04:43 | 32.72285 | -117.14547 | 784 ft | 130 kts | 285° |
| 2026-04-20 04:43 | 32.72530 | -117.15571 | 585 ft | 128 kts | 285° |
| 2026-04-20 04:43 | 32.72775 | -117.16573 | 350 ft | 124 kts | 286° |
| 2026-04-20 04:43 | 32.73017 | -117.17564 | 145 ft | 126 kts | 286° |
| 2026-04-20 04:44 | 32.73250 | -117.18527 | 24 ft | 113 kts | 285° |
| 2026-04-20 04:44 | 32.73412 | -117.19191 | 18 ft | 53 kts | 286° |
| 2026-04-20 04:44 | 32.73452 | -117.19371 | 23 ft | 1 kts | 277° |
| 2026-04-20 04:44 | 32.73449 | -117.19412 | 22 ft | 10 kts | 257° |
| 2026-04-20 04:45 | 32.73432 | -117.19471 | 25 ft | 4 kts | 246° |
| 2026-04-20 04:45 | 32.73423 | -117.19489 | 23 ft | 2 kts | 234° |
| 2026-04-20 04:45 | 32.73409 | -117.19499 | 24 ft | 2 kts | 195° |
| 2026-04-20 04:45 | 32.73382 | -117.19481 | 24 ft | 9 kts | 126° |
| 2026-04-20 04:46 | 32.73358 | -117.19395 | 21 ft | 10 kts | 105° |
| 2026-04-20 04:46 | 32.73343 | -117.19330 | 20 ft | 7 kts | 106° |
| 2026-04-20 04:46 | 32.73339 | -117.19316 | 20 ft | 0 kts | 106° |
| 2026-04-20 04:46 | 32.73339 | -117.19314 | 19 ft | 1 kts | 106° |
| 2026-04-20 04:47 | 32.73331 | -117.19285 | 22 ft | 7 kts | 106° |
| 2026-04-20 04:47 | 32.73313 | -117.19212 | 19 ft | 10 kts | 107° |
| 2026-04-20 04:47 | 32.73296 | -117.19143 | 21 ft | 5 kts | 107° |
| 2026-04-20 04:47 | 32.73286 | -117.19106 | 23 ft | 5 kts | 107° |
| 2026-04-20 04:48 | 32.73277 | -117.19063 | 21 ft | 6 kts | 105° |
| 2026-04-20 04:48 | 32.73268 | -117.19026 | 21 ft | 1 kts | 105° |
| 2026-04-20 04:48 | 32.73266 | -117.19018 | 21 ft | 0 kts | 105° |
| 2026-04-20 04:48 | 32.73266 | -117.19017 | 21 ft | 0 kts | 105° |
| 2026-04-20 04:49 | 32.73263 | -117.19009 | 21 ft | 3 kts | 116° |
| 2026-04-20 04:49 | 32.73259 | -117.18987 | 21 ft | 2 kts | 38° |
| 2026-04-20 04:49 | 32.73263 | -117.19017 | 21 ft | 6 kts | 289° |
| 2026-04-20 04:50 | 32.73287 | -117.19101 | 23 ft | 15 kts | 286° |
| 2026-04-20 04:50 | 32.73320 | -117.19237 | 19 ft | 18 kts | 285° |
| 2026-04-20 04:50 | 32.73353 | -117.19375 | 22 ft | 17 kts | 285° |
| 2026-04-20 04:50 | 32.73373 | -117.19456 | 22 ft | 8 kts | 286° |
| 2026-04-20 04:51 | 32.73389 | -117.19520 | 25 ft | 8 kts | 286° |
| 2026-04-20 04:51 | 32.73402 | -117.19573 | 22 ft | 6 kts | 286° |
| 2026-04-20 04:51 | 32.73414 | -117.19622 | 22 ft | 6 kts | 286° |
| 2026-04-20 04:51 | 32.73417 | -117.19672 | 22 ft | 7 kts | 255° |
| 2026-04-20 04:52 | 32.73379 | -117.19707 | 20 ft | 8 kts | 188° |
| 2026-04-20 04:52 | 32.73331 | -117.19732 | 22 ft | 7 kts | 252° |
| 2026-04-20 04:52 | 32.73339 | -117.19771 | 19 ft | 2 kts | 281° |
| 2026-04-20 04:52 | 32.73340 | -117.19777 | 19 ft | 1 kts | 283° |
| 2026-04-20 04:53 | 32.73341 | -117.19779 | 19 ft | 0 kts | 283° |